createdAt,value
2023-03-22T00:01:31.041Z,12.54
2023-03-22T00:03:58.023Z,12.48
2023-03-22T00:06:25.399Z,12.44
2023-03-22T00:08:53.454Z,12.43
2023-03-22T00:11:21.849Z,12.42
2023-03-22T00:13:48.593Z,12.45
2023-03-22T00:16:15.709Z,12.42
2023-03-22T00:18:42.417Z,12.42
2023-03-22T00:21:13.143Z,12.38
2023-03-22T00:23:40.151Z,12.40
2023-03-22T00:26:07.708Z,12.41
2023-03-22T00:28:35.443Z,12.41
2023-03-22T00:31:03.509Z,12.35
2023-03-22T00:33:31.140Z,12.34
2023-03-22T00:36:00.405Z,12.30
2023-03-22T00:38:44.946Z,12.26
2023-03-22T00:41:14.596Z,12.23
2023-03-22T00:43:41.618Z,12.29
2023-03-22T00:46:09.648Z,12.25
2023-03-22T00:48:36.425Z,12.18
2023-03-22T00:51:03.121Z,12.14
2023-03-22T00:53:29.744Z,12.11
2023-03-22T00:55:57.151Z,12.03
2023-03-22T00:58:23.791Z,12.03
2023-03-22T01:00:50.512Z,12.05
2023-03-22T01:03:17.542Z,12.10
2023-03-22T01:05:49.418Z,12.04
2023-03-22T01:08:16.857Z,12.02
2023-03-22T01:10:44.663Z,12.02
2023-03-22T01:13:11.942Z,12.06
2023-03-22T01:15:38.655Z,12.07
2023-03-22T01:18:05.613Z,12.04
2023-03-22T01:20:32.352Z,12.04
2023-03-22T01:22:59.652Z,11.99
2023-03-22T01:25:26.234Z,12.02
2023-03-22T01:27:53.982Z,12.02
2023-03-22T01:30:20.637Z,11.96
2023-03-22T01:32:47.272Z,11.97
2023-03-22T01:35:13.882Z,11.95
2023-03-22T01:37:40.736Z,11.95
2023-03-22T01:40:08.182Z,11.91
2023-03-22T01:42:34.801Z,11.94
2023-03-22T01:45:13.678Z,11.88
2023-03-22T01:47:41.940Z,11.84
2023-03-22T01:50:08.985Z,11.86
2023-03-22T01:52:36.333Z,11.81
2023-03-22T01:55:05.048Z,11.77
2023-03-22T01:57:33.642Z,11.74
2023-03-22T02:00:00.801Z,11.73
2023-03-22T02:02:30.991Z,11.69
2023-03-22T02:04:58.288Z,11.62
2023-03-22T02:07:27.757Z,11.63
2023-03-22T02:09:54.482Z,11.61
2023-03-22T02:12:46.278Z,11.57
2023-03-22T02:15:17.754Z,11.61
2023-03-22T02:17:44.259Z,11.64
2023-03-22T02:20:16.873Z,11.61
2023-03-22T02:22:53.439Z,11.57
2023-03-22T02:25:20.322Z,11.53
2023-03-22T02:27:56.235Z,11.56
2023-03-22T02:30:41.454Z,11.59
2023-03-22T02:33:20.191Z,11.49
2023-03-22T02:35:49.652Z,11.44
2023-03-22T02:38:28.397Z,11.44
2023-03-22T02:41:05.055Z,11.44
2023-03-22T02:43:58.831Z,11.45
2023-03-22T02:46:30.845Z,11.38
2023-03-22T02:49:04.779Z,11.32
2023-03-22T02:51:44.061Z,11.27
2023-03-22T02:54:18.918Z,11.28
2023-03-22T02:56:55.366Z,11.24
2023-03-22T02:59:23.707Z,11.21
2023-03-22T03:01:56.396Z,11.20
2023-03-22T03:04:30.343Z,11.23
2023-03-22T03:07:02.852Z,11.16
2023-03-22T03:09:30.068Z,11.13
2023-03-22T03:11:56.665Z,11.13
2023-03-22T03:14:29.002Z,11.08
2023-03-22T03:17:11.712Z,10.99
2023-03-22T03:19:48.538Z,10.96
2023-03-22T03:22:24.356Z,10.97
2023-03-22T03:25:23.211Z,10.94
2023-03-22T03:28:01.126Z,10.92
2023-03-22T03:30:41.208Z,10.95
2023-03-22T03:33:10.204Z,10.92
2023-03-22T03:35:42.223Z,10.93
2023-03-22T03:38:12.334Z,10.92
2023-03-22T03:40:45.326Z,10.92
2023-03-22T03:43:12.600Z,10.88
2023-03-22T03:45:42.392Z,10.90
2023-03-22T03:48:13.291Z,10.86
2023-03-22T03:50:40.206Z,10.84
2023-03-22T03:53:07.026Z,10.81
2023-03-22T03:55:33.842Z,10.80
2023-03-22T03:58:00.439Z,10.80
2023-03-22T04:00:27.181Z,10.82
2023-03-22T04:02:53.791Z,10.81
2023-03-22T04:05:20.378Z,10.81
2023-03-22T04:07:46.941Z,10.81
2023-03-22T04:10:13.666Z,10.76
2023-03-22T04:12:40.310Z,10.76
2023-03-22T04:15:07.508Z,10.74
2023-03-22T04:17:34.112Z,10.66
2023-03-22T04:20:05.315Z,10.56
2023-03-22T04:22:34.755Z,10.58
2023-03-22T04:25:01.740Z,10.63
2023-03-22T04:27:28.375Z,10.58
2023-03-22T04:29:55.951Z,10.58
2023-03-22T04:32:25.432Z,10.62
2023-03-22T04:34:52.898Z,10.62
2023-03-22T04:37:22.690Z,10.56
2023-03-22T04:39:49.282Z,10.54
2023-03-22T04:42:16.170Z,10.56
2023-03-22T04:44:42.769Z,10.60
2023-03-22T04:47:09.602Z,10.61
2023-03-22T04:49:36.231Z,10.62
2023-03-22T04:52:03.025Z,10.63
2023-03-22T04:54:29.626Z,10.62
2023-03-22T04:56:56.199Z,10.64
2023-03-22T04:59:22.811Z,10.69
2023-03-22T05:01:50.667Z,10.66
2023-03-22T05:04:17.964Z,10.72
2023-03-22T05:06:45.291Z,10.73
2023-03-22T05:09:12.814Z,10.75
2023-03-22T05:11:40.789Z,10.75
2023-03-22T05:14:09.240Z,10.77
2023-03-22T05:16:36.282Z,10.78
2023-03-22T05:19:03.267Z,10.78
2023-03-22T05:21:36.664Z,10.79
2023-03-22T05:24:03.615Z,10.85
2023-03-22T05:26:30.199Z,10.83
2023-03-22T05:28:56.917Z,10.86
2023-03-22T05:31:23.840Z,10.85
2023-03-22T05:33:51.970Z,10.86
2023-03-22T05:36:19.786Z,10.90
2023-03-22T05:38:46.902Z,10.87
2023-03-22T05:41:14.022Z,10.90
2023-03-22T05:43:41.284Z,10.94
2023-03-22T05:46:09.553Z,10.99
2023-03-22T05:48:36.921Z,11.03
2023-03-22T05:51:07.404Z,11.07
2023-03-22T05:53:34.067Z,11.10
2023-03-22T05:56:03.539Z,11.10
2023-03-22T05:58:31.659Z,11.19
2023-03-22T06:01:01.587Z,11.19
2023-03-22T06:03:28.602Z,11.23
2023-03-22T06:05:55.357Z,11.27
2023-03-22T06:08:26.377Z,11.34
2023-03-22T06:10:53.550Z,11.36
2023-03-22T06:13:20.839Z,11.36
2023-03-22T06:15:47.602Z,11.36
2023-03-22T06:18:14.373Z,11.38
2023-03-22T06:20:41.563Z,11.40
2023-03-22T06:23:08.469Z,11.43
2023-03-22T06:25:35.095Z,11.44
2023-03-22T06:28:01.822Z,11.44
2023-03-22T06:30:28.643Z,11.45
2023-03-22T06:32:55.490Z,11.46
2023-03-22T06:35:22.234Z,11.48
2023-03-22T06:37:48.861Z,11.51
2023-03-22T06:40:15.725Z,11.55
2023-03-22T06:42:42.411Z,11.56
2023-03-22T06:45:09.423Z,11.55
2023-03-22T06:47:36.041Z,11.56
2023-03-22T06:50:02.767Z,11.57
2023-03-22T06:52:29.390Z,11.56
2023-03-22T06:54:56.969Z,11.56
2023-03-22T06:57:23.737Z,11.54
2023-03-22T06:59:50.383Z,11.53
2023-03-22T07:02:17.051Z,11.53
2023-03-22T07:04:46.204Z,11.56
2023-03-22T07:07:13.075Z,11.56
2023-03-22T07:09:41.177Z,11.59
2023-03-22T07:12:07.807Z,11.64
2023-03-22T07:14:34.709Z,11.71
2023-03-22T07:17:01.513Z,11.78
2023-03-22T07:19:28.399Z,11.84
2023-03-22T07:21:55.085Z,11.90
2023-03-22T07:24:21.757Z,11.93
2023-03-22T07:26:48.378Z,11.96
2023-03-22T07:29:14.956Z,11.96
2023-03-22T07:32:00.483Z,11.93
2023-03-22T07:34:27.225Z,11.96
2023-03-22T07:36:56.938Z,12.00
2023-03-22T07:39:24.969Z,12.04
2023-03-22T07:41:52.175Z,12.06
2023-03-22T07:44:18.772Z,12.05
2023-03-22T07:46:45.521Z,12.06
2023-03-22T07:49:12.122Z,12.07
2023-03-22T07:51:38.740Z,12.06
2023-03-22T07:54:07.624Z,12.03
2023-03-22T07:56:34.770Z,12.04
2023-03-22T07:59:01.510Z,12.04
2023-03-22T08:01:28.201Z,12.10
2023-03-22T08:03:55.002Z,12.12
2023-03-22T08:06:21.905Z,12.09
2023-03-22T08:08:48.531Z,12.11
2023-03-22T08:11:15.640Z,12.10
2023-03-22T08:13:47.349Z,12.11
2023-03-22T08:16:14.679Z,12.17
2023-03-22T08:18:43.608Z,12.18
2023-03-22T08:21:11.128Z,12.22
2023-03-22T08:23:42.034Z,12.23
2023-03-22T08:26:09.952Z,12.27
2023-03-22T08:28:36.946Z,12.28
2023-03-22T08:31:13.207Z,12.26
2023-03-22T08:33:40.608Z,12.19
2023-03-22T08:36:16.584Z,12.21
2023-03-22T08:38:44.952Z,12.19
2023-03-22T08:41:12.667Z,12.17
2023-03-22T08:43:39.464Z,12.21
2023-03-22T08:46:06.349Z,12.25
2023-03-22T08:48:33.053Z,12.20
2023-03-22T08:51:01.216Z,12.25
2023-03-22T08:53:28.131Z,12.31
2023-03-22T08:55:58.227Z,12.34
2023-03-22T08:58:25.141Z,12.36
2023-03-22T09:00:52.173Z,12.40
2023-03-22T09:03:18.968Z,12.50
2023-03-22T09:05:51.777Z,12.50
2023-03-22T09:08:19.739Z,12.48
2023-03-22T09:10:52.238Z,12.57
2023-03-22T09:13:19.924Z,12.51
2023-03-22T09:15:47.235Z,12.53
2023-03-22T09:18:16.423Z,12.53
2023-03-22T09:20:44.941Z,12.53
2023-03-22T09:23:13.028Z,12.55
2023-03-22T09:25:43.430Z,12.51
2023-03-22T09:28:10.458Z,12.50
2023-03-22T09:30:37.194Z,12.45
2023-03-22T09:33:04.593Z,12.47
2023-03-22T09:35:32.253Z,12.50
2023-03-22T09:37:59.981Z,12.43
2023-03-22T09:40:30.026Z,12.44
2023-03-22T09:42:59.679Z,12.43
2023-03-22T09:45:38.493Z,12.47
2023-03-22T09:48:11.853Z,12.52
2023-03-22T09:50:53.471Z,12.57
2023-03-22T09:53:21.689Z,12.66
2023-03-22T09:56:00.927Z,12.69
2023-03-22T09:58:48.748Z,12.73
2023-03-22T10:01:28.378Z,12.69
2023-03-22T10:04:31.494Z,12.68
2023-03-22T10:07:24.710Z,12.69
2023-03-22T10:10:13.372Z,12.75
2023-03-22T10:12:46.871Z,12.87
2023-03-22T10:15:20.171Z,13.02
2023-03-22T10:17:52.050Z,13.08
2023-03-22T10:20:30.330Z,13.12
2023-03-22T10:22:58.207Z,13.24
2023-03-22T10:25:33.460Z,13.18
2023-03-22T10:28:00.290Z,13.13
2023-03-22T10:30:30.557Z,13.12
2023-03-22T10:33:02.695Z,13.07
2023-03-22T10:35:30.813Z,13.02
2023-03-22T10:38:02.913Z,12.95
2023-03-22T10:40:34.628Z,12.85
2023-03-22T10:43:07.270Z,12.87
2023-03-22T10:45:35.191Z,12.91
2023-03-22T10:48:13.391Z,12.91
2023-03-22T10:50:42.638Z,13.01
2023-03-22T10:53:20.395Z,13.02
2023-03-22T10:55:47.134Z,13.07
2023-03-22T10:58:14.672Z,13.01
2023-03-22T11:00:50.344Z,13.09
2023-03-22T11:03:27.632Z,13.09
2023-03-22T11:06:10.817Z,13.13
2023-03-22T11:08:46.844Z,13.15
2023-03-22T11:11:36.958Z,13.16
2023-03-22T11:14:06.598Z,13.12
2023-03-22T11:16:42.811Z,13.14
2023-03-22T11:19:15.655Z,13.14
2023-03-22T11:21:43.489Z,13.07
2023-03-22T11:24:13.224Z,13.04
2023-03-22T11:26:41.596Z,12.99
2023-03-22T11:29:14.433Z,13.03
2023-03-22T11:31:54.228Z,12.99
2023-03-22T11:34:23.613Z,12.98
2023-03-22T11:36:59.500Z,12.98
2023-03-22T11:39:28.518Z,13.06
2023-03-22T11:42:01.512Z,13.09
2023-03-22T11:44:29.779Z,13.12
2023-03-22T11:47:00.476Z,13.11
2023-03-22T11:49:49.377Z,13.08
2023-03-22T11:52:18.668Z,13.07
2023-03-22T11:54:46.522Z,13.11
2023-03-22T11:57:19.672Z,13.10
2023-03-22T11:59:49.650Z,13.11
2023-03-22T12:02:31.699Z,13.08
2023-03-22T12:05:07.333Z,13.07
2023-03-22T12:07:34.893Z,13.10
2023-03-22T12:10:06.643Z,13.07
2023-03-22T12:12:38.865Z,13.08
2023-03-22T12:15:16.183Z,13.05
2023-03-22T12:17:48.079Z,13.05
2023-03-22T12:20:42.667Z,13.03
2023-03-22T12:23:18.439Z,13.05
2023-03-22T12:25:55.919Z,13.12
2023-03-22T12:28:28.593Z,13.10
2023-03-22T12:30:59.207Z,13.10
2023-03-22T12:33:28.561Z,13.01
2023-03-22T12:36:02.679Z,12.99
2023-03-22T12:38:50.345Z,12.95
2023-03-22T12:41:26.370Z,12.95
2023-03-22T12:43:59.401Z,12.95
2023-03-22T12:46:33.568Z,12.96
2023-03-22T12:49:32.660Z,13.01
2023-03-22T12:53:02.474Z,13.06
2023-03-22T12:55:32.601Z,13.01
2023-03-22T12:57:59.874Z,13.02
2023-03-22T13:00:39.024Z,13.06
2023-03-22T13:03:20.288Z,13.11
2023-03-22T13:05:50.243Z,13.12
2023-03-22T13:08:22.519Z,13.15
2023-03-22T13:10:50.929Z,13.21
2023-03-22T13:13:24.296Z,13.22
2023-03-22T13:16:09.359Z,13.23
2023-03-22T13:18:36.402Z,13.28
2023-03-22T13:21:17.358Z,13.29
2023-03-22T13:24:20.916Z,13.33
2023-03-22T13:26:51.637Z,13.32
2023-03-22T13:29:24.142Z,13.29
2023-03-22T13:31:58.866Z,13.28
2023-03-22T13:34:58.221Z,13.26
2023-03-22T13:37:35.122Z,13.33
2023-03-22T13:40:15.397Z,13.40
2023-03-22T13:42:42.348Z,13.45
2023-03-22T13:45:27.898Z,13.51
2023-03-22T13:48:13.518Z,13.58
2023-03-22T13:50:40.804Z,13.60
2023-03-22T13:53:21.592Z,13.61
2023-03-22T13:55:54.374Z,13.57
2023-03-22T13:58:30.348Z,13.56
2023-03-22T14:00:57.478Z,13.54
2023-03-22T14:03:28.969Z,13.56
2023-03-22T14:06:04.983Z,13.55
2023-03-22T14:08:32.955Z,13.54
2023-03-22T14:11:24.456Z,13.56
2023-03-22T14:13:56.340Z,13.62
2023-03-22T14:16:37.176Z,13.64
2023-03-22T14:19:05.718Z,13.62
2023-03-22T14:21:38.808Z,13.64
2023-03-22T14:52:26.148Z,13.78
2023-03-22T14:54:59.518Z,13.78
2023-03-22T14:57:36.791Z,13.82
2023-03-22T15:00:16.595Z,13.78
2023-03-22T15:02:47.417Z,13.75
2023-03-22T15:05:18.422Z,13.74
2023-03-22T15:07:50.556Z,13.71
2023-03-22T15:10:20.913Z,13.70
2023-03-22T15:12:50.100Z,13.70
2023-03-22T15:15:18.582Z,13.73
2023-03-22T15:17:46.141Z,13.74
2023-03-22T15:20:20.870Z,13.76
2023-03-22T15:22:59.010Z,13.75
2023-03-22T15:25:35.138Z,13.75
2023-03-22T15:28:10.342Z,13.72
2023-03-22T15:30:37.153Z,13.71
2023-03-22T15:33:14.856Z,13.68
2023-03-22T15:35:42.695Z,13.69
2023-03-22T15:38:11.747Z,13.69
2023-03-22T15:40:42.069Z,13.67
2023-03-22T15:43:34.493Z,13.66
2023-03-22T15:46:19.465Z,13.66
2023-03-22T15:48:53.717Z,13.68
2023-03-22T15:51:22.618Z,13.69
2023-03-22T15:53:50.090Z,13.68
2023-03-22T15:56:29.148Z,13.69
2023-03-22T15:59:00.895Z,13.66
2023-03-22T16:01:28.660Z,13.64
2023-03-22T16:04:00.555Z,13.67
2023-03-22T16:06:29.364Z,13.69
2023-03-22T16:09:01.082Z,13.69
2023-03-22T16:11:29.274Z,13.69
2023-03-22T16:13:57.121Z,13.70
2023-03-22T16:16:25.916Z,13.71
2023-03-22T16:18:58.934Z,13.70
2023-03-22T16:21:31.074Z,13.72
2023-03-22T16:23:59.309Z,13.78
2023-03-22T16:26:26.317Z,13.76
2023-03-22T16:28:53.417Z,13.78
2023-03-22T16:31:22.090Z,13.79
2023-03-22T16:33:49.174Z,13.75
2023-03-22T16:36:23.348Z,13.76
2023-03-22T16:38:50.521Z,13.75
2023-03-22T16:41:26.752Z,13.74
2023-03-22T16:43:58.492Z,13.74
2023-03-22T16:46:28.455Z,13.72
2023-03-22T16:48:55.441Z,13.72
2023-03-22T16:51:24.850Z,13.70
2023-03-22T16:53:52.765Z,13.72
2023-03-22T16:56:22.630Z,13.73
2023-03-22T16:58:54.357Z,13.76
2023-03-22T17:01:21.996Z,13.74
2023-03-22T17:03:50.104Z,13.75
2023-03-22T17:06:26.185Z,13.76
2023-03-22T17:08:53.230Z,13.75
2023-03-22T17:11:25.426Z,13.77
2023-03-22T17:13:53.921Z,13.76
2023-03-22T17:16:21.430Z,13.75
2023-03-22T17:18:49.576Z,13.79
2023-03-22T17:21:18.593Z,13.81
2023-03-22T17:23:46.967Z,13.81
2023-03-22T17:26:14.705Z,13.86
2023-03-22T17:28:41.744Z,13.82
2023-03-22T17:31:09.578Z,13.79
2023-03-22T17:33:37.058Z,13.75
2023-03-22T17:36:03.922Z,13.75
2023-03-22T17:38:34.689Z,13.74
2023-03-22T17:41:10.655Z,13.70
2023-03-22T17:43:37.407Z,13.70
2023-03-22T17:46:41.870Z,13.67
2023-03-22T17:48:51.012Z,13.65
2023-03-22T17:51:17.880Z,13.65
2023-03-22T17:54:35.471Z,13.64
2023-03-22T17:57:01.013Z,13.61
2023-03-22T17:59:18.400Z,13.61
2023-03-22T18:01:45.153Z,13.60
2023-03-22T18:04:11.916Z,13.59
2023-03-22T18:06:38.662Z,13.60
2023-03-22T18:09:08.436Z,13.58
2023-03-22T18:11:35.242Z,13.58
2023-03-22T18:14:13.835Z,13.61
2023-03-22T18:16:52.865Z,13.63
2023-03-22T18:19:21.174Z,13.63
2023-03-22T18:21:56.700Z,13.63
2023-03-22T18:24:27.035Z,13.61
2023-03-22T18:27:10.751Z,13.61
2023-03-22T18:29:38.257Z,13.59
2023-03-22T18:32:17.285Z,13.58
2023-03-22T18:34:45.779Z,13.61
2023-03-22T18:37:13.667Z,13.60
2023-03-22T18:40:18.188Z,13.57
2023-03-22T18:42:41.080Z,13.58
2023-03-22T18:45:17.258Z,13.60
2023-03-22T18:47:44.544Z,13.60
2023-03-22T18:50:13.590Z,13.62
2023-03-22T18:53:06.296Z,13.60
2023-03-22T18:55:29.809Z,13.59
2023-03-22T18:58:02.761Z,13.60
2023-03-22T19:00:29.756Z,13.60
2023-03-22T19:02:57.332Z,13.61
2023-03-22T19:05:25.698Z,13.63
2023-03-22T19:08:05.333Z,13.66
2023-03-22T19:10:40.827Z,13.64
2023-03-22T19:13:07.872Z,13.61
2023-03-22T19:15:44.962Z,13.61
2023-03-22T19:18:15.673Z,13.58
2023-03-22T19:20:57.697Z,13.56
2023-03-22T19:23:30.040Z,13.55
2023-03-22T19:25:57.311Z,13.54
2023-03-22T19:28:27.273Z,13.53
2023-03-22T19:30:56.588Z,13.51
2023-03-22T19:33:41.883Z,13.49
2023-03-22T19:36:10.884Z,13.50
2023-03-22T19:38:37.754Z,13.52
2023-03-22T19:41:38.717Z,13.51
2023-03-22T19:43:55.079Z,13.51
2023-03-22T19:46:22.036Z,13.45
2023-03-22T19:48:49.138Z,13.39
2023-03-22T19:51:17.302Z,13.34
2023-03-22T19:54:18.305Z,13.29
2023-03-22T19:56:31.555Z,13.30
2023-03-22T19:58:58.820Z,13.27
2023-03-22T20:01:26.451Z,13.25
2023-03-22T20:03:53.882Z,13.28
2023-03-22T20:06:22.212Z,13.30
2023-03-22T20:08:48.990Z,13.31
2023-03-22T20:11:25.964Z,13.31
2023-03-22T20:14:01.324Z,13.32
2023-03-22T20:16:28.700Z,13.33
2023-03-22T20:18:55.748Z,13.35
2023-03-22T20:21:23.416Z,13.35
2023-03-22T20:23:52.388Z,13.32
2023-03-22T20:26:19.702Z,13.34
2023-03-22T20:28:46.702Z,13.33
2023-03-22T20:31:15.765Z,13.34
2023-03-22T20:33:44.893Z,13.37
2023-03-22T20:36:13.255Z,13.37
2023-03-22T20:38:42.922Z,13.36
2023-03-22T20:41:14.863Z,13.33
2023-03-22T20:43:45.978Z,13.32
2023-03-22T20:46:13.846Z,13.31
2023-03-22T20:48:40.827Z,13.27
2023-03-22T20:51:07.742Z,13.25
2023-03-22T20:53:34.763Z,13.22
2023-03-22T20:56:01.445Z,13.19
2023-03-22T20:58:28.168Z,13.18
2023-03-22T21:00:54.996Z,13.14
2023-03-22T21:03:31.502Z,13.11
2023-03-22T21:05:59.502Z,13.09
2023-03-22T21:08:26.250Z,13.10
2023-03-22T21:10:52.954Z,13.11
2023-03-22T21:13:19.635Z,13.14
2023-03-22T21:15:46.477Z,13.16
2023-03-22T21:18:19.251Z,13.18
2023-03-22T21:20:46.151Z,13.16
2023-03-22T21:23:13.028Z,13.15
2023-03-22T21:25:39.982Z,13.16
2023-03-22T21:28:10.223Z,13.16
2023-03-22T21:30:39.200Z,13.13
2023-03-22T21:33:06.132Z,13.10
2023-03-22T21:35:34.220Z,13.10
2023-03-22T21:38:09.842Z,13.13
2023-03-22T21:40:37.813Z,13.12
2023-03-22T21:43:04.554Z,13.09
2023-03-22T21:45:34.687Z,13.06
2023-03-22T21:48:02.129Z,13.06
2023-03-22T21:50:28.871Z,13.08
2023-03-22T21:52:55.814Z,13.08
2023-03-22T21:55:22.540Z,13.10
2023-03-22T21:57:55.511Z,13.10
2023-03-22T22:00:25.085Z,13.11
2023-03-22T22:02:52.908Z,13.16
2023-03-22T22:05:24.243Z,13.16
2023-03-22T22:07:55.305Z,13.20
2023-03-22T22:10:23.421Z,13.17
2023-03-22T22:12:52.071Z,13.14
2023-03-22T22:15:20.005Z,13.17
2023-03-22T22:17:46.863Z,13.15
2023-03-22T22:20:19.068Z,13.17
2023-03-22T22:22:48.176Z,13.16
2023-03-22T22:25:17.822Z,13.13
2023-03-22T22:27:45.698Z,13.07
2023-03-22T22:30:17.407Z,12.99
2023-03-22T22:32:45.349Z,12.89
2023-03-22T22:35:12.194Z,12.80
2023-03-22T22:37:39.871Z,12.81
2023-03-22T22:40:12.327Z,12.76
2023-03-22T22:42:39.908Z,12.77
2023-03-22T22:45:07.912Z,12.76
2023-03-22T22:47:35.283Z,12.74
2023-03-22T22:50:02.695Z,12.71
2023-03-22T22:52:37.966Z,12.70
2023-03-22T22:55:12.978Z,12.68
2023-03-22T22:57:40.490Z,12.71
2023-03-22T23:00:12.247Z,12.72
2023-03-22T23:02:40.102Z,12.76
2023-03-22T23:05:08.209Z,12.78
2023-03-22T23:07:35.015Z,12.80
2023-03-22T23:10:01.938Z,12.80
2023-03-22T23:12:30.363Z,12.83
2023-03-22T23:14:57.829Z,12.89
2023-03-22T23:17:25.790Z,12.93
2023-03-22T23:19:57.767Z,12.94
2023-03-22T23:22:30.366Z,12.94
2023-03-22T23:24:58.735Z,12.97
2023-03-22T23:27:25.716Z,12.97
2023-03-22T23:29:52.397Z,12.95
2023-03-22T23:32:19.114Z,12.96
2023-03-22T23:34:45.801Z,12.96
2023-03-22T23:37:13.076Z,12.96
2023-03-22T23:39:39.907Z,12.92
2023-03-22T23:42:07.248Z,12.91
2023-03-22T23:44:34.284Z,12.93
2023-03-22T23:47:01.142Z,12.95
2023-03-22T23:49:28.062Z,12.97
2023-03-22T23:51:54.880Z,13.02
2023-03-22T23:54:21.755Z,13.12
2023-03-22T23:56:55.085Z,13.11
2023-03-22T23:59:23.148Z,13.15
